createdAt,value
2022-12-18T00:01:04.861Z,2.35
2022-12-18T00:03:31.573Z,2.35
2022-12-18T00:05:58.276Z,2.34
2022-12-18T00:08:24.922Z,2.39
2022-12-18T00:10:51.575Z,2.44
2022-12-18T00:13:19.406Z,2.49
2022-12-18T00:15:46.082Z,2.44
2022-12-18T00:18:16.079Z,2.46
2022-12-18T00:20:45.657Z,2.54
2022-12-18T00:23:12.281Z,2.50
2022-12-18T00:25:38.980Z,2.52
2022-12-18T00:28:05.620Z,2.49
2022-12-18T00:30:32.331Z,2.52
2022-12-18T00:32:58.969Z,2.46
2022-12-18T00:35:25.609Z,2.42
2022-12-18T00:37:52.243Z,2.41
2022-12-18T00:40:18.889Z,2.41
2022-12-18T00:42:45.525Z,2.35
2022-12-18T00:45:13.097Z,2.36
2022-12-18T00:47:40.190Z,2.31
2022-12-18T00:50:07.355Z,2.26
2022-12-18T00:52:34.007Z,2.23
2022-12-18T00:55:05.840Z,2.18
2022-12-18T00:57:32.958Z,2.21
2022-12-18T00:59:59.702Z,2.17
2022-12-18T01:02:26.465Z,2.15
2022-12-18T01:04:53.204Z,2.16
2022-12-18T01:07:19.834Z,2.11
2022-12-18T01:09:46.483Z,2.08
2022-12-18T01:12:13.105Z,2.07
2022-12-18T01:14:39.717Z,2.06
2022-12-18T01:17:06.353Z,2.07
2022-12-18T01:19:33.084Z,2.05
2022-12-18T01:21:59.761Z,2.04
2022-12-18T01:24:26.408Z,2.05
2022-12-18T01:26:53.045Z,2.03
2022-12-18T01:29:19.689Z,2.06
2022-12-18T01:31:46.400Z,2.08
2022-12-18T01:34:13.093Z,2.09
2022-12-18T01:36:39.726Z,2.08
2022-12-18T01:39:08.460Z,2.13
2022-12-18T01:41:35.597Z,2.16
2022-12-18T01:44:02.230Z,2.19
2022-12-18T01:46:28.849Z,2.20
2022-12-18T01:48:57.806Z,2.22
2022-12-18T01:51:24.942Z,2.20
2022-12-18T01:53:51.568Z,2.20
2022-12-18T01:56:19.645Z,2.21
2022-12-18T01:58:53.767Z,2.20
2022-12-18T02:01:22.156Z,2.21
2022-12-18T02:03:48.843Z,2.25
2022-12-18T02:06:15.320Z,2.26
2022-12-18T02:09:09.529Z,2.27
2022-12-18T02:11:47.328Z,2.30
2022-12-18T02:14:29.203Z,2.30
2022-12-18T02:17:11.920Z,2.31
2022-12-18T02:20:02.851Z,2.35
2022-12-18T02:23:02.183Z,2.25
2022-12-18T02:25:28.907Z,2.21
2022-12-18T02:27:55.540Z,2.23
2022-12-18T02:30:22.282Z,2.21
2022-12-18T02:32:51.733Z,2.19
2022-12-18T02:35:21.867Z,2.16
2022-12-18T02:37:48.506Z,2.16
2022-12-18T02:40:15.404Z,2.15
2022-12-18T02:42:42.153Z,2.08
2022-12-18T02:45:09.001Z,2.12
2022-12-18T02:47:38.404Z,2.16
2022-12-18T02:50:17.982Z,2.17
2022-12-18T02:53:10.838Z,2.14
2022-12-18T02:56:07.184Z,2.11
2022-12-18T02:58:35.608Z,2.02
2022-12-18T03:01:22.561Z,2.08
2022-12-18T03:03:55.553Z,2.06
2022-12-18T03:06:34.921Z,2.09
2022-12-18T03:09:03.714Z,2.12
2022-12-18T03:11:31.993Z,2.07
2022-12-18T03:13:58.721Z,2.02
2022-12-18T03:16:29.674Z,2.00
2022-12-18T03:19:01.910Z,2.00
2022-12-18T03:21:48.524Z,2.05
2022-12-18T03:24:15.165Z,2.05
2022-12-18T03:26:43.669Z,2.05
2022-12-18T03:29:13.462Z,2.04
2022-12-18T03:31:41.273Z,2.00
2022-12-18T03:34:14.587Z,2.10
2022-12-18T03:36:41.237Z,2.17
2022-12-18T03:39:07.854Z,2.20
2022-12-18T03:41:48.531Z,2.20
2022-12-18T03:44:16.133Z,2.16
2022-12-18T03:47:15.007Z,2.16
2022-12-18T03:50:00.300Z,2.05
2022-12-18T03:52:29.089Z,1.99
2022-12-18T03:54:56.284Z,2.00
2022-12-18T03:57:24.667Z,1.94
2022-12-18T03:59:53.302Z,1.88
2022-12-18T04:02:20.123Z,1.92
2022-12-18T04:04:46.874Z,1.97
2022-12-18T04:07:13.498Z,1.90
2022-12-18T04:09:40.201Z,1.84
2022-12-18T04:12:09.168Z,1.79
2022-12-18T04:14:35.824Z,1.71
2022-12-18T04:17:03.257Z,1.66
2022-12-18T04:19:29.903Z,1.58
2022-12-18T04:21:56.537Z,1.58
2022-12-18T04:24:23.198Z,1.59
2022-12-18T04:26:49.815Z,1.64
2022-12-18T04:29:16.447Z,1.67
2022-12-18T04:31:43.077Z,1.65
2022-12-18T04:34:09.699Z,1.50
2022-12-18T04:36:36.341Z,1.48
2022-12-18T04:39:03.001Z,1.44
2022-12-18T04:41:29.623Z,1.41
2022-12-18T04:43:56.315Z,1.39
2022-12-18T04:46:23.028Z,1.35
2022-12-18T04:48:49.693Z,1.35
2022-12-18T04:51:16.350Z,1.37
2022-12-18T04:53:43.204Z,1.33
2022-12-18T04:56:12.514Z,1.29
2022-12-18T04:58:39.400Z,1.38
2022-12-18T05:01:06.157Z,1.34
2022-12-18T05:03:32.849Z,1.35
2022-12-18T05:05:59.563Z,1.43
2022-12-18T05:08:26.364Z,1.51
2022-12-18T05:11:03.059Z,1.57
2022-12-18T05:13:29.758Z,1.50
2022-12-18T05:15:56.447Z,1.48
2022-12-18T05:18:23.842Z,1.51
2022-12-18T05:20:53.380Z,1.51
2022-12-18T05:23:20.086Z,1.42
2022-12-18T05:25:55.348Z,1.34
2022-12-18T05:28:21.976Z,1.30
2022-12-18T05:30:50.175Z,1.30
2022-12-18T05:33:16.928Z,1.30
2022-12-18T05:35:43.562Z,1.33
2022-12-18T05:38:10.190Z,1.37
2022-12-18T05:40:36.818Z,1.45
2022-12-18T05:43:06.148Z,1.51
2022-12-18T05:45:32.791Z,1.49
2022-12-18T05:47:59.454Z,1.49
2022-12-18T05:50:26.152Z,1.53
2022-12-18T05:52:52.786Z,1.49
2022-12-18T05:55:19.421Z,1.54
2022-12-18T05:57:46.056Z,1.68
2022-12-18T06:00:13.671Z,1.52
2022-12-18T06:02:40.440Z,1.41
2022-12-18T06:05:07.360Z,1.38
2022-12-18T06:07:33.976Z,1.34
2022-12-18T06:10:00.628Z,1.30
2022-12-18T06:12:27.266Z,1.26
2022-12-18T06:14:53.906Z,1.25
2022-12-18T06:17:20.608Z,1.25
2022-12-18T06:19:47.234Z,1.30
2022-12-18T06:22:13.876Z,1.44
2022-12-18T06:24:40.486Z,1.36
2022-12-18T06:27:07.109Z,1.41
2022-12-18T06:29:33.725Z,1.55
2022-12-18T06:32:00.398Z,1.49
2022-12-18T06:34:27.053Z,1.47
2022-12-18T06:36:53.693Z,1.47
2022-12-18T06:39:20.302Z,1.50
2022-12-18T06:41:46.952Z,1.54
2022-12-18T06:44:13.669Z,1.60
2022-12-18T06:46:40.334Z,1.55
2022-12-18T06:49:08.381Z,1.54
2022-12-18T06:51:34.994Z,1.58
2022-12-18T06:54:01.680Z,1.57
2022-12-18T06:56:28.371Z,1.54
2022-12-18T06:58:55.036Z,1.60
2022-12-18T07:01:21.797Z,1.59
2022-12-18T07:03:48.558Z,1.59
2022-12-18T07:06:18.853Z,1.58
2022-12-18T07:08:46.022Z,1.52
2022-12-18T07:11:12.773Z,1.65
2022-12-18T07:13:39.864Z,1.70
2022-12-18T07:16:17.052Z,1.71
2022-12-18T07:18:47.663Z,1.65
2022-12-18T07:21:15.806Z,1.69
2022-12-18T07:23:42.836Z,1.74
2022-12-18T07:26:11.309Z,1.67
2022-12-18T07:28:38.568Z,1.70
2022-12-18T07:31:06.145Z,1.71
2022-12-18T07:33:34.213Z,1.86
2022-12-18T07:36:01.577Z,1.86
2022-12-18T07:38:28.206Z,1.82
2022-12-18T07:40:55.147Z,1.97
2022-12-18T07:43:21.769Z,2.02
2022-12-18T07:45:50.356Z,1.92
2022-12-18T07:48:17.025Z,1.98
2022-12-18T07:50:43.686Z,2.04
2022-12-18T07:53:10.317Z,2.05
2022-12-18T07:56:05.318Z,2.12
2022-12-18T07:58:23.572Z,2.09
2022-12-18T08:00:50.217Z,2.03
2022-12-18T08:03:17.045Z,1.93
2022-12-18T08:05:43.700Z,1.96
2022-12-18T08:08:10.780Z,1.96
2022-12-18T08:10:38.459Z,3.34
2022-12-18T08:13:05.375Z,5.75
2022-12-18T08:15:32.200Z,7.58
2022-12-18T08:17:58.881Z,8.99
2022-12-18T08:20:25.522Z,10.06
2022-12-18T08:22:52.143Z,11.34
2022-12-18T08:25:18.759Z,12.50
2022-12-18T08:27:45.372Z,13.41
2022-12-18T08:30:12.306Z,14.31
2022-12-18T08:32:38.950Z,14.66
2022-12-18T08:35:06.345Z,15.14
2022-12-18T08:37:33.037Z,16.06
2022-12-18T08:39:59.719Z,16.64
2022-12-18T08:42:26.359Z,16.94
2022-12-18T08:44:53.024Z,17.49
2022-12-18T08:47:19.705Z,18.12
2022-12-18T08:49:46.345Z,18.65
2022-12-18T08:52:13.097Z,19.11
2022-12-18T08:54:39.724Z,19.04
2022-12-18T08:57:06.351Z,18.08
2022-12-18T08:59:32.992Z,17.94
2022-12-18T09:01:59.682Z,18.65
2022-12-18T09:04:26.389Z,18.70
2022-12-18T09:06:53.026Z,18.15
2022-12-18T09:09:19.648Z,18.30
2022-12-18T09:11:46.427Z,19.02
2022-12-18T09:14:13.061Z,19.23
2022-12-18T09:16:39.732Z,19.49
2022-12-18T09:19:06.572Z,20.17
2022-12-18T09:21:36.760Z,20.19
2022-12-18T09:24:04.164Z,20.41
2022-12-18T09:26:32.233Z,20.35
2022-12-18T09:28:58.881Z,20.74
2022-12-18T09:31:25.634Z,20.21
2022-12-18T09:33:52.425Z,20.21
2022-12-18T09:36:19.148Z,19.14
2022-12-18T09:38:45.790Z,19.62
2022-12-18T09:41:45.984Z,19.58
2022-12-18T09:44:31.812Z,19.31
2022-12-18T09:46:58.389Z,18.95
2022-12-18T09:49:26.604Z,18.49
2022-12-18T09:52:18.861Z,16.87
2022-12-18T09:55:13.602Z,15.22
2022-12-18T09:57:43.504Z,13.74
2022-12-18T10:00:10.433Z,12.64
2022-12-18T10:02:37.209Z,11.89
2022-12-18T10:05:10.752Z,11.55
2022-12-18T10:08:16.919Z,11.11
2022-12-18T10:10:51.314Z,10.82
2022-12-18T10:13:43.023Z,10.78
2022-12-18T10:16:20.574Z,10.75
2022-12-18T10:19:41.535Z,10.66
2022-12-18T10:22:10.541Z,10.68
2022-12-18T10:24:40.285Z,10.68
2022-12-18T10:27:15.254Z,10.58
2022-12-18T10:29:43.627Z,10.38
2022-12-18T10:32:15.310Z,10.35
2022-12-18T10:34:41.948Z,10.20
2022-12-18T10:37:12.840Z,9.91
2022-12-18T10:39:39.444Z,9.76
2022-12-18T10:42:17.438Z,9.51
2022-12-18T10:44:44.069Z,9.44
2022-12-18T10:47:13.777Z,9.48
2022-12-18T10:49:43.415Z,9.50
2022-12-18T10:52:21.331Z,9.43
2022-12-18T10:54:53.599Z,9.29
2022-12-18T10:57:25.842Z,9.19
2022-12-18T10:59:54.055Z,9.09
2022-12-18T11:02:35.548Z,9.00
2022-12-18T11:05:02.330Z,8.86
2022-12-18T11:07:48.375Z,8.88
2022-12-18T11:10:17.980Z,8.87
2022-12-18T11:12:44.638Z,8.83
2022-12-18T11:15:30.615Z,8.76
2022-12-18T11:17:57.229Z,8.80
2022-12-18T11:20:33.433Z,8.87
2022-12-18T11:23:01.637Z,8.88
2022-12-18T11:25:32.935Z,8.84
2022-12-18T11:28:05.616Z,8.73
2022-12-18T11:30:33.949Z,8.60
2022-12-18T11:33:08.107Z,8.62
2022-12-18T11:35:52.997Z,8.58
2022-12-18T11:38:29.902Z,8.57
2022-12-18T11:41:01.622Z,8.51
2022-12-18T11:43:30.742Z,8.48
2022-12-18T11:46:02.629Z,8.51
2022-12-18T11:48:39.318Z,8.41
2022-12-18T11:51:06.932Z,8.36
2022-12-18T11:53:33.681Z,8.24
2022-12-18T11:56:42.985Z,8.27
2022-12-18T11:59:25.168Z,8.24
2022-12-18T12:02:15.687Z,8.25
2022-12-18T12:05:00.537Z,8.27
2022-12-18T12:07:48.310Z,8.20
2022-12-18T12:10:27.101Z,8.18
2022-12-18T12:12:53.608Z,8.15
2022-12-18T12:15:20.140Z,8.11
2022-12-18T12:17:52.628Z,8.13
2022-12-18T12:20:49.574Z,8.16
2022-12-18T12:23:26.162Z,8.13
2022-12-18T12:26:05.069Z,8.06
2022-12-18T12:29:02.187Z,7.95
2022-12-18T12:31:48.180Z,7.90
2022-12-18T12:34:31.521Z,7.93
2022-12-18T12:37:22.331Z,7.91
2022-12-18T12:39:48.987Z,7.86
2022-12-18T12:42:36.665Z,7.89
2022-12-18T12:45:06.098Z,7.80
2022-12-18T12:47:42.742Z,7.75
2022-12-18T12:50:14.828Z,7.70
2022-12-18T12:52:46.913Z,7.73
2022-12-18T12:55:21.396Z,7.73
2022-12-18T12:57:59.973Z,7.75
2022-12-18T13:00:26.888Z,7.83
2022-12-18T13:03:20.887Z,7.81
2022-12-18T13:05:51.977Z,7.81
2022-12-18T13:08:35.322Z,7.72
2022-12-18T13:11:02.564Z,7.72
2022-12-18T13:13:30.306Z,7.85
2022-12-18T13:16:07.518Z,7.72
2022-12-18T13:18:34.141Z,7.65
2022-12-18T13:21:03.222Z,7.75
2022-12-18T13:23:35.249Z,7.74
2022-12-18T13:26:08.280Z,7.76
2022-12-18T13:28:34.777Z,7.68
2022-12-18T13:31:02.164Z,7.74
2022-12-18T13:33:34.860Z,7.63
2022-12-18T13:36:04.036Z,7.59
2022-12-18T13:38:34.282Z,7.51
2022-12-18T13:41:21.181Z,7.45
2022-12-18T13:43:53.581Z,7.45
2022-12-18T13:46:29.538Z,7.42
2022-12-18T13:49:07.133Z,7.39
2022-12-18T13:51:34.400Z,7.46
2022-12-18T13:54:18.300Z,7.40
2022-12-18T13:56:45.932Z,7.33
2022-12-18T13:59:26.839Z,7.35
2022-12-18T14:01:58.406Z,7.27
2022-12-18T14:04:29.631Z,7.30
2022-12-18T14:07:04.092Z,7.24
2022-12-18T14:09:32.536Z,7.24
2022-12-18T14:11:59.372Z,7.22
2022-12-18T14:14:32.389Z,7.13
2022-12-18T14:17:00.682Z,7.10
2022-12-18T14:19:27.610Z,7.08
2022-12-18T14:21:54.245Z,7.07
2022-12-18T14:24:22.180Z,7.04
2022-12-18T14:26:50.001Z,7.01
2022-12-18T14:29:20.206Z,7.02
2022-12-18T14:32:08.436Z,7.05
2022-12-18T14:34:38.535Z,7.01
2022-12-18T14:37:05.403Z,6.92
2022-12-18T14:39:32.059Z,6.91
2022-12-18T14:41:58.715Z,6.83
2022-12-18T14:44:25.450Z,6.72
2022-12-18T14:46:52.114Z,6.61
2022-12-18T14:49:31.080Z,6.52
2022-12-18T14:52:05.355Z,6.38
2022-12-18T14:54:32.121Z,6.30
2022-12-18T14:57:04.562Z,6.29
2022-12-18T14:59:31.357Z,6.20
2022-12-18T15:02:17.678Z,6.12
2022-12-18T15:04:44.680Z,6.05
2022-12-18T15:07:16.726Z,5.98
2022-12-18T15:09:45.132Z,5.94
2022-12-18T15:12:27.368Z,5.93
2022-12-18T15:14:54.155Z,5.87
2022-12-18T15:17:23.120Z,5.85
2022-12-18T15:19:53.234Z,5.74
2022-12-18T15:22:24.059Z,5.67
2022-12-18T15:24:50.767Z,5.62
2022-12-18T15:27:26.106Z,5.58
2022-12-18T15:30:23.265Z,5.51
2022-12-18T15:32:50.145Z,5.42
2022-12-18T15:35:19.046Z,5.38
2022-12-18T15:37:45.704Z,5.31
2022-12-18T15:40:17.442Z,5.27
2022-12-18T15:42:44.202Z,5.21
2022-12-18T15:45:14.140Z,5.15
2022-12-18T15:47:41.416Z,5.08
2022-12-18T15:50:08.517Z,5.07
2022-12-18T15:52:47.461Z,5.07
2022-12-18T15:55:14.710Z,5.08
2022-12-18T15:57:41.349Z,5.09
2022-12-18T16:00:12.833Z,5.06
2022-12-18T16:02:39.667Z,5.00
2022-12-18T16:05:14.702Z,4.99
2022-12-18T16:07:41.381Z,4.93
2022-12-18T16:10:08.283Z,4.88
2022-12-18T16:12:35.437Z,4.85
2022-12-18T16:15:02.847Z,4.80
2022-12-18T16:17:29.486Z,4.78
2022-12-18T16:19:56.350Z,4.75
2022-12-18T16:22:24.941Z,4.71
2022-12-18T16:24:52.062Z,4.65
2022-12-18T16:27:18.827Z,4.56
2022-12-18T16:29:45.456Z,4.53
2022-12-18T16:32:16.937Z,4.51
2022-12-18T16:34:43.599Z,4.48
2022-12-18T16:37:11.346Z,4.47
2022-12-18T16:39:38.867Z,4.43
2022-12-18T16:42:16.525Z,4.40
2022-12-18T16:44:43.489Z,4.28
2022-12-18T16:47:10.176Z,4.28
2022-12-18T16:49:38.441Z,4.19
2022-12-18T16:52:05.796Z,4.17
2022-12-18T16:54:32.429Z,4.19
2022-12-18T16:56:59.129Z,4.15
2022-12-18T16:59:25.801Z,4.23
2022-12-18T17:01:52.633Z,4.20
2022-12-18T17:04:19.346Z,4.23
2022-12-18T17:06:46.022Z,4.21
2022-12-18T17:09:13.229Z,4.26
2022-12-18T17:11:39.887Z,4.20
2022-12-18T17:14:11.093Z,4.21
2022-12-18T17:16:37.793Z,4.22
2022-12-18T17:19:09.668Z,4.22
2022-12-18T17:21:40.348Z,4.25
2022-12-18T17:24:07.602Z,4.18
2022-12-18T17:26:34.218Z,4.16
2022-12-18T17:29:00.853Z,4.20
2022-12-18T17:31:28.651Z,4.26
2022-12-18T17:33:55.341Z,4.31
2022-12-18T17:36:22.107Z,4.33
2022-12-18T17:38:52.220Z,4.35
2022-12-18T17:41:18.869Z,4.38
2022-12-18T17:43:50.397Z,4.43
2022-12-18T17:46:17.084Z,4.55
2022-12-18T17:48:43.746Z,4.65
2022-12-18T17:51:10.748Z,4.57
2022-12-18T17:53:38.719Z,4.55
2022-12-18T17:56:05.897Z,4.57
2022-12-18T17:58:36.210Z,4.58
2022-12-18T18:01:04.303Z,4.59
2022-12-18T18:03:31.959Z,4.67
2022-12-18T18:05:59.395Z,4.71
2022-12-18T18:08:26.563Z,4.71
2022-12-18T18:10:53.330Z,4.67
2022-12-18T18:13:24.489Z,4.65
2022-12-18T18:15:57.679Z,4.63
2022-12-18T18:18:24.517Z,4.66
2022-12-18T18:20:51.541Z,4.68
2022-12-18T18:23:24.674Z,4.66
2022-12-18T18:25:51.405Z,4.63
2022-12-18T18:28:18.705Z,4.79
2022-12-18T18:30:45.437Z,4.79
2022-12-18T18:33:12.284Z,4.57
2022-12-18T18:35:58.347Z,4.48
2022-12-18T18:38:25.057Z,4.43
2022-12-18T18:41:01.357Z,4.39
2022-12-18T18:43:28.010Z,4.32
2022-12-18T18:45:58.035Z,4.32
2022-12-18T18:48:25.307Z,4.32
2022-12-18T18:51:22.700Z,4.30
2022-12-18T18:53:50.958Z,4.23
2022-12-18T18:56:56.444Z,4.20
2022-12-18T18:59:06.674Z,4.17
2022-12-18T19:01:33.423Z,4.17
2022-12-18T19:04:00.597Z,4.23
2022-12-18T19:06:27.999Z,4.18
2022-12-18T19:08:55.114Z,4.21
2022-12-18T19:11:22.430Z,4.31
2022-12-18T19:13:49.069Z,4.42
2022-12-18T19:16:15.818Z,4.52
2022-12-18T19:18:42.858Z,4.47
2022-12-18T19:21:09.850Z,4.40
2022-12-18T19:23:36.607Z,4.36
2022-12-18T19:26:27.443Z,4.36
2022-12-18T19:28:50.777Z,4.37
2022-12-18T19:31:22.818Z,4.36
2022-12-18T19:33:51.533Z,4.32
2022-12-18T19:36:22.773Z,4.38
2022-12-18T19:38:49.999Z,4.36
2022-12-18T19:41:16.916Z,4.38
2022-12-18T19:43:44.965Z,4.46
2022-12-18T19:46:15.771Z,4.45
2022-12-18T19:48:43.105Z,4.49
2022-12-18T19:51:39.367Z,4.52
2022-12-18T19:54:06.018Z,4.56
2022-12-18T19:56:33.646Z,4.58
2022-12-18T19:59:00.604Z,4.63
2022-12-18T20:01:27.452Z,4.71
2022-12-18T20:03:56.120Z,4.68
2022-12-18T20:06:34.878Z,4.72
2022-12-18T20:09:05.642Z,4.73
2022-12-18T20:11:32.937Z,4.69
2022-12-18T20:14:02.505Z,4.75
2022-12-18T20:16:29.519Z,4.77
2022-12-18T20:18:57.354Z,4.79
2022-12-18T20:21:26.898Z,4.80
2022-12-18T20:23:53.594Z,4.78
2022-12-18T20:26:20.354Z,4.78
2022-12-18T20:28:47.042Z,4.80
2022-12-18T20:31:14.235Z,4.83
2022-12-18T20:33:41.659Z,4.80
2022-12-18T20:36:12.384Z,4.85
2022-12-18T20:38:39.572Z,4.91
2022-12-18T20:41:08.482Z,4.92
2022-12-18T20:43:35.323Z,4.89
2022-12-18T20:46:07.136Z,4.87
2022-12-18T20:48:33.820Z,4.92
2022-12-18T20:51:02.053Z,4.88
2022-12-18T20:53:30.649Z,4.89
2022-12-18T20:55:57.292Z,4.96
2022-12-18T20:58:24.195Z,4.97
2022-12-18T21:00:51.014Z,4.95
2022-12-18T21:03:17.785Z,4.99
2022-12-18T21:05:44.638Z,5.01
2022-12-18T21:08:11.273Z,4.98
2022-12-18T21:10:39.931Z,5.08
2022-12-18T21:13:07.279Z,5.20
2022-12-18T21:15:35.407Z,5.15
2022-12-18T21:18:02.044Z,5.14
2022-12-18T21:20:28.909Z,5.13
2022-12-18T21:22:59.155Z,5.17
2022-12-18T21:25:38.861Z,5.04
2022-12-18T21:28:05.473Z,5.04
2022-12-18T21:30:32.769Z,5.06
2022-12-18T21:32:59.486Z,5.01
2022-12-18T21:35:26.382Z,4.99
2022-12-18T21:37:55.884Z,5.05
2022-12-18T21:40:22.567Z,5.07
2022-12-18T21:42:49.489Z,5.10
2022-12-18T21:45:16.150Z,5.18
2022-12-18T21:47:42.777Z,5.24
2022-12-18T21:50:09.457Z,5.11
2022-12-18T21:52:36.142Z,5.13
2022-12-18T21:55:08.977Z,5.12
2022-12-18T21:57:39.846Z,5.17
2022-12-18T22:00:07.543Z,5.15
2022-12-18T22:02:34.435Z,5.16
2022-12-18T22:05:01.236Z,5.15
2022-12-18T22:07:27.928Z,5.15
2022-12-18T22:09:54.880Z,5.19
2022-12-18T22:12:21.562Z,5.20
2022-12-18T22:14:48.216Z,5.13
2022-12-18T22:17:14.946Z,5.19
2022-12-18T22:19:43.067Z,5.17
2022-12-18T22:22:10.286Z,5.26
2022-12-18T22:24:37.039Z,5.37
2022-12-18T22:27:03.695Z,5.27
2022-12-18T22:29:30.853Z,5.25
2022-12-18T22:31:59.352Z,5.26
2022-12-18T22:34:26.015Z,5.32
2022-12-18T22:36:52.756Z,5.42
2022-12-18T22:39:21.090Z,5.28
2022-12-18T22:41:48.060Z,5.25
2022-12-18T22:44:15.017Z,5.29
2022-12-18T22:46:46.026Z,5.38
2022-12-18T22:49:16.935Z,5.32
2022-12-18T22:51:43.821Z,5.48
2022-12-18T22:54:10.511Z,5.51
2022-12-18T22:56:37.186Z,5.47
2022-12-18T22:59:03.900Z,5.38
2022-12-18T23:01:30.907Z,5.44
2022-12-18T23:03:58.075Z,5.44
2022-12-18T23:06:26.037Z,5.37
2022-12-18T23:08:56.022Z,5.32
2022-12-18T23:11:22.854Z,5.29
2022-12-18T23:13:49.890Z,5.38
2022-12-18T23:16:17.488Z,5.40
2022-12-18T23:18:44.233Z,5.40
2022-12-18T23:21:15.287Z,5.44
2022-12-18T23:23:43.712Z,5.56
2022-12-18T23:26:19.237Z,5.58
2022-12-18T23:28:45.964Z,5.58
2022-12-18T23:31:16.722Z,5.50
2022-12-18T23:33:44.529Z,5.51
2022-12-18T23:36:11.670Z,5.46
2022-12-18T23:38:38.335Z,5.42
2022-12-18T23:41:13.139Z,5.52
2022-12-18T23:43:40.033Z,5.54
2022-12-18T23:46:11.188Z,5.57
2022-12-18T23:48:38.407Z,5.46
2022-12-18T23:51:06.908Z,5.53
2022-12-18T23:53:33.534Z,5.51
2022-12-18T23:56:00.148Z,5.53
2022-12-18T23:58:27.114Z,5.49
